Time,TemperatureF,DewpointF,PressureIn,WindDirection,WindDirectionDegrees,WindSpeedMPH,WindSpeedGustMPH,Humidity,HourlyPrecipIn,Conditions,Clouds,dailyrainin,SolarRadiationWatts/m^2,SoftwareType,DateUTC
2013-02-16 00:02:00,34.4,26.6,29.92,SW,218,0.0,0.0,73,0.00,OVC,OVC,0.00,0.0,WeatherDisplay:10.37,2013-02-16 05:02:00,
2013-02-16 00:07:00,34.4,26.6,29.92,SW,218,0.0,0.0,73,0.00,OVC,OVC,0.00,0.0,WeatherDisplay:10.37,2013-02-16 05:07:00,
2013-02-16 00:12:00,34.4,26.6,29.92,SW,218,0.0,0.0,73,0.00,OVC,OVC,0.00,0.0,WeatherDisplay:10.37,2013-02-16 05:12:00,
2013-02-16 00:17:00,34.4,27.0,29.92,SW,218,0.0,0.0,74,0.00,OVC,OVC,0.00,0.0,WeatherDisplay:10.37,2013-02-16 05:17:00,
2013-02-16 00:22:00,34.4,27.0,29.92,SW,218,0.0,0.0,74,0.00,OVC,OVC,0.00,0.0,WeatherDisplay:10.37,2013-02-16 05:22:00,
2013-02-16 00:27:00,34.6,27.1,29.92,SW,218,0.0,0.0,74,0.00,OVC,OVC,0.00,0.0,WeatherDisplay:10.37,2013-02-16 05:27:00,
2013-02-16 00:32:00,34.8,27.3,29.93,SW,218,0.0,0.0,74,0.00,OVC,OVC,0.00,0.0,WeatherDisplay:10.37,2013-02-16 05:32:00,
2013-02-16 00:37:00,34.8,27.4,29.92,SW,218,0.0,0.0,74,0.00,OVC,OVC,0.00,0.0,WeatherDisplay:10.37,2013-02-16 05:37:00,
2013-02-16 00:42:00,35.0,27.5,29.92,SW,218,0.0,0.0,74,0.00,OVC,OVC,0.00,0.0,WeatherDisplay:10.37,2013-02-16 05:42:00,
2013-02-16 00:47:00,35.0,27.2,29.92,SW,218,0.0,0.0,73,0.00,OVC,OVC,0.00,0.0,WeatherDisplay:10.37,2013-02-16 05:47:00,
2013-02-16 00:52:00,35.1,27.3,29.92,SW,218,0.0,0.0,73,0.00,OVC,OVC,0.00,0.0,WeatherDisplay:10.37,2013-02-16 05:52:00,
2013-02-16 00:57:00,35.2,27.1,29.92,SW,218,0.0,0.0,72,0.00,OVC,OVC,0.00,0.0,WeatherDisplay:10.37,2013-02-16 05:57:00,
2013-02-16 01:02:00,35.4,27.6,29.92,SW,218,0.0,0.0,73,0.00,OVC,OVC,0.00,0.0,WeatherDisplay:10.37,2013-02-16 06:02:00,
2013-02-16 01:07:00,35.5,27.7,29.92,SW,218,0.0,0.0,73,0.00,OVC,OVC,0.00,0.0,WeatherDisplay:10.37,2013-02-16 06:07:00,
2013-02-16 01:12:00,35.6,27.5,29.92,SW,218,0.0,0.0,72,0.00,OVC,OVC,0.00,0.0,WeatherDisplay:10.37,2013-02-16 06:12:00,
2013-02-16 01:17:00,35.7,27.6,29.92,SW,218,0.0,0.0,72,0.00,OVC,OVC,0.00,0.0,WeatherDisplay:10.37,2013-02-16 06:17:00,
2013-02-16 01:22:00,35.9,27.7,29.92,SW,218,0.0,0.0,72,0.00,OVC,OVC,0.00,0.0,WeatherDisplay:10.37,2013-02-16 06:22:00,
2013-02-16 01:27:00,35.9,27.8,29.92,SW,218,0.0,0.0,72,0.00,OVC,OVC,0.00,0.0,WeatherDisplay:10.37,2013-02-16 06:27:00,
2013-02-16 01:32:00,36.0,27.5,29.92,SW,218,0.0,0.0,71,0.00,OVC,OVC,0.00,0.0,WeatherDisplay:10.37,2013-02-16 06:32:00,
2013-02-16 01:37:00,36.1,28.3,29.92,SW,218,0.0,0.0,73,0.00,OVC,OVC,0.00,0.0,WeatherDisplay:10.37,2013-02-16 06:37:00,
2013-02-16 01:42:00,36.1,27.9,29.92,SW,218,0.0,0.0,72,0.00,OVC,OVC,0.00,0.0,WeatherDisplay:10.37,2013-02-16 06:42:00,
2013-02-16 01:47:00,36.1,27.9,29.92,SW,218,0.0,0.0,72,0.00,OVC,OVC,0.00,0.0,WeatherDisplay:10.37,2013-02-16 06:47:00,
2013-02-16 01:52:00,36.0,28.5,29.92,SW,218,0.0,0.0,74,0.00,OVC,OVC,0.00,0.0,WeatherDisplay:10.37,2013-02-16 06:52:00,
2013-02-16 01:57:00,35.9,28.5,29.92,SW,218,0.0,0.0,74,0.00,OVC,OVC,0.00,0.0,WeatherDisplay:10.37,2013-02-16 06:57:00,
2013-02-16 02:02:00,35.9,28.7,29.92,SW,218,0.0,0.0,75,0.00,OVC,OVC,0.00,0.0,WeatherDisplay:10.37,2013-02-16 07:02:00,
2013-02-16 02:07:00,35.7,28.6,29.92,SW,218,0.0,0.0,75,0.00,OVC,OVC,0.00,0.0,WeatherDisplay:10.37,2013-02-16 07:07:00,
2013-02-16 02:12:00,35.6,28.5,29.92,SW,218,0.0,0.0,75,0.00,OVC,OVC,0.00,0.0,WeatherDisplay:10.37,2013-02-16 07:12:00,
2013-02-16 02:17:00,35.3,28.8,29.92,SW,218,0.0,0.0,77,0.00,OVC,OVC,0.00,0.0,WeatherDisplay:10.37,2013-02-16 07:17:00,
2013-02-16 02:22:00,35.1,28.9,29.92,SW,218,0.0,0.0,78,0.00,OVC,OVC,0.00,0.0,WeatherDisplay:10.37,2013-02-16 07:22:00,
2013-02-16 02:27:00,34.8,28.4,29.93,SW,218,0.0,0.0,77,0.00,OVC,OVC,0.00,0.0,WeatherDisplay:10.37,2013-02-16 07:27:00,
2013-02-16 02:32:00,34.5,28.3,29.93,SW,218,0.0,0.0,78,0.00,OVC,OVC,0.00,0.0,WeatherDisplay:10.37,2013-02-16 07:32:00,
2013-02-16 02:37:00,34.4,27.9,29.92,SW,218,0.0,0.0,77,0.00,OVC,OVC,0.00,0.0,WeatherDisplay:10.37,2013-02-16 07:37:00,
2013-02-16 02:42:00,34.4,27.9,29.90,SW,218,0.0,0.0,77,0.00,OVC,OVC,0.00,0.0,WeatherDisplay:10.37,2013-02-16 07:42:00,
2013-02-16 02:47:00,34.4,27.9,29.90,SW,218,0.0,2.0,77,0.00,OVC,OVC,0.00,0.0,WeatherDisplay:10.37,2013-02-16 07:47:00,
2013-02-16 02:52:00,34.3,27.8,29.91,SW,227,0.0,5.0,77,0.00,OVC,OVC,0.00,0.0,WeatherDisplay:10.37,2013-02-16 07:52:00,
2013-02-16 02:57:00,34.3,27.2,29.91,WSW,254,1.0,5.0,75,0.00,OVC,OVC,0.00,0.0,WeatherDisplay:10.37,2013-02-16 07:57:00,
2013-02-16 03:07:00,34.4,27.0,29.92,WNW,286,2.0,4.0,74,0.00,OVC,OVC,0.00,0.0,WeatherDisplay:10.37,2013-02-16 08:07:00,
2013-02-16 03:12:00,34.4,27.3,29.92,WNW,294,0.0,3.0,75,0.00,OVC,OVC,0.00,0.0,WeatherDisplay:10.37,2013-02-16 08:12:00,
2013-02-16 03:17:00,34.4,27.3,29.92,WNW,294,1.0,3.0,75,0.00,OVC,OVC,0.00,0.0,WeatherDisplay:10.37,2013-02-16 08:17:00,
2013-02-16 03:22:00,34.4,27.3,29.93,WNW,284,1.0,4.0,75,0.00,OVC,OVC,0.00,0.0,WeatherDisplay:10.37,2013-02-16 08:22:00,
2013-02-16 03:27:00,34.4,27.3,29.93,West,266,0.0,3.0,75,0.00,OVC,OVC,0.00,0.0,WeatherDisplay:10.37,2013-02-16 08:27:00,
2013-02-16 03:32:00,34.4,27.6,29.93,West,272,0.0,0.0,76,0.00,OVC,OVC,0.00,0.0,WeatherDisplay:10.37,2013-02-16 08:32:00,
2013-02-16 03:37:00,34.4,27.9,29.93,West,279,0.0,3.0,77,0.00,OVC,OVC,0.00,0.0,WeatherDisplay:10.37,2013-02-16 08:37:00,
2013-02-16 03:42:00,34.4,28.2,29.93,West,277,1.0,6.0,78,0.00,OVC,OVC,0.00,0.0,WeatherDisplay:10.37,2013-02-16 08:42:00,
2013-02-16 03:52:00,34.3,29.1,29.93,West,268,0.0,5.0,81,0.00,OVC,OVC,0.00,0.0,WeatherDisplay:10.37,2013-02-16 08:52:00,
2013-02-16 03:57:00,34.1,29.2,29.93,West,273,0.0,1.0,82,0.00,OVC,OVC,0.00,0.0,WeatherDisplay:10.37,2013-02-16 08:57:00,
2013-02-16 04:02:00,33.9,29.0,29.93,WNW,286,0.0,2.0,82,0.00,OVC,OVC,0.00,0.0,WeatherDisplay:10.37,2013-02-16 09:02:00,
2013-02-16 04:07:00,33.7,29.1,29.93,WNW,298,0.0,3.0,83,0.00,OVC,OVC,0.00,0.0,WeatherDisplay:10.37,2013-02-16 09:07:00,
2013-02-16 04:12:00,33.6,29.3,29.93,WNW,292,0.0,3.0,84,0.00,OVC,OVC,0.00,0.0,WeatherDisplay:10.37,2013-02-16 09:12:00,
2013-02-16 04:17:00,33.5,29.5,29.93,WNW,286,0.0,2.0,85,0.00,OVC,OVC,0.00,0.0,WeatherDisplay:10.37,2013-02-16 09:17:00,
2013-02-16 04:22:00,33.4,29.4,29.92,WNW,284,1.0,5.0,85,0.00,OVC,OVC,0.00,0.0,WeatherDisplay:10.37,2013-02-16 09:22:00,
2013-02-16 04:27:00,33.2,29.5,29.93,West,274,0.0,2.0,86,0.00,OVC,OVC,0.00,0.0,WeatherDisplay:10.37,2013-02-16 09:27:00,
2013-02-16 04:32:00,33.0,29.3,29.93,West,263,0.0,0.0,86,0.00,OVC,OVC,0.00,0.0,WeatherDisplay:10.37,2013-02-16 09:32:00,
2013-02-16 04:37:00,32.9,29.5,29.93,West,263,1.0,4.0,87,0.00,OVC,OVC,0.00,0.0,WeatherDisplay:10.37,2013-02-16 09:37:00,
2013-02-16 04:42:00,32.8,29.6,29.92,West,280,0.0,1.0,88,0.00,OVC,OVC,0.00,0.0,WeatherDisplay:10.37,2013-02-16 09:42:00,
2013-02-16 04:47:00,32.7,29.5,29.92,WNW,296,0.0,0.0,88,0.00,OVC,OVC,0.00,0.0,WeatherDisplay:10.37,2013-02-16 09:47:00,
2013-02-16 04:52:00,32.6,29.4,29.91,NW,319,0.0,4.0,88,0.01,RA,RA,0.01,0.0,WeatherDisplay:10.37,2013-02-16 09:52:00,
2013-02-16 04:57:00,32.5,29.6,29.91,NW,304,0.0,0.0,89,0.00,RA,RA,0.01,0.0,WeatherDisplay:10.37,2013-02-16 09:57:00,
2013-02-16 05:02:00,32.4,29.5,29.92,WSW,247,0.0,1.0,89,0.00,OVC,OVC,0.01,0.0,WeatherDisplay:10.37,2013-02-16 10:02:00,
2013-02-16 05:07:00,32.4,29.5,29.92,West,266,0.0,0.0,89,0.00,OVC,OVC,0.01,0.0,WeatherDisplay:10.37,2013-02-16 10:07:00,
2013-02-16 05:12:00,32.3,29.5,29.93,WNW,283,0.0,2.0,89,0.00,OVC,OVC,0.01,0.0,WeatherDisplay:10.37,2013-02-16 10:12:00,
2013-02-16 05:17:00,32.3,29.4,29.93,West,281,0.0,0.0,89,0.00,OVC,OVC,0.01,0.0,WeatherDisplay:10.37,2013-02-16 10:17:00,
2013-02-16 05:22:00,32.3,29.7,29.93,West,276,0.0,0.0,90,0.00,OVC,OVC,0.01,0.0,WeatherDisplay:10.37,2013-02-16 10:22:00,
2013-02-16 05:27:00,32.2,29.6,29.93,West,268,0.0,1.0,90,0.00,OVC,OVC,0.01,0.0,WeatherDisplay:10.37,2013-02-16 10:27:00,
2013-02-16 05:32:00,32.2,29.6,29.92,West,279,0.0,0.0,90,0.00,OVC,OVC,0.01,0.0,WeatherDisplay:10.37,2013-02-16 10:32:00,
2013-02-16 05:37:00,32.1,29.5,29.92,WNW,297,0.0,1.0,90,0.00,OVC,OVC,0.01,0.0,WeatherDisplay:10.37,2013-02-16 10:37:00,
2013-02-16 05:42:00,32.1,29.5,29.92,WNW,301,0.0,0.0,90,0.00,OVC,OVC,0.01,0.0,WeatherDisplay:10.37,2013-02-16 10:42:00,
2013-02-16 05:47:00,32.1,29.5,29.92,WNW,303,0.0,0.0,90,0.01,RA,RA,0.02,0.0,WeatherDisplay:10.37,2013-02-16 10:47:00,
2013-02-16 05:52:00,32.1,29.5,29.92,WNW,303,0.0,0.0,90,0.00,RA,RA,0.02,0.0,WeatherDisplay:10.37,2013-02-16 10:52:00,
2013-02-16 05:57:00,32.0,29.4,29.92,WNW,303,0.0,0.0,90,0.00,OVC,OVC,0.02,0.0,WeatherDisplay:10.37,2013-02-16 10:57:00,
2013-02-16 06:02:00,32.0,29.7,29.92,WNW,303,0.0,0.0,91,0.00,,,0.02,0.0,WeatherDisplay:10.37,2013-02-16 11:02:00,
2013-02-16 06:07:00,32.0,29.7,29.92,WNW,303,0.0,0.0,91,0.00,,,0.02,0.0,WeatherDisplay:10.37,2013-02-16 11:07:00,
2013-02-16 06:12:00,32.0,29.7,29.92,WNW,303,0.0,0.0,91,0.00,,,0.02,0.0,WeatherDisplay:10.37,2013-02-16 11:12:00,
2013-02-16 06:17:00,31.9,29.6,29.92,WNW,303,0.0,0.0,91,0.00,,,0.02,0.0,WeatherDisplay:10.37,2013-02-16 11:17:00,
2013-02-16 06:22:00,31.9,29.6,29.92,WNW,303,0.0,0.0,91,0.00,,,0.02,0.0,WeatherDisplay:10.37,2013-02-16 11:22:00,
2013-02-16 06:27:00,31.9,29.6,29.92,WNW,303,0.0,0.0,91,0.00,,,0.02,0.0,WeatherDisplay:10.37,2013-02-16 11:27:00,
2013-02-16 06:32:00,31.8,29.5,29.92,WNW,303,0.0,0.0,91,0.00,,,0.02,0.0,WeatherDisplay:10.37,2013-02-16 11:32:00,
2013-02-16 06:37:00,31.8,29.5,29.92,WNW,303,0.0,0.0,91,0.00,,,0.02,0.0,WeatherDisplay:10.37,2013-02-16 11:37:00,
2013-02-16 06:42:00,31.8,29.5,29.92,WNW,303,0.0,0.0,91,0.00,,,0.02,0.0,WeatherDisplay:10.37,2013-02-16 11:42:00,
2013-02-16 06:47:00,31.8,29.5,29.92,WNW,303,0.0,0.0,91,0.00,CLR,CLR,0.02,0.0,WeatherDisplay:10.37,2013-02-16 11:47:00,
2013-02-16 06:57:00,31.7,29.4,29.92,WNW,303,0.0,0.0,91,0.00,CLR,CLR,0.02,0.0,WeatherDisplay:10.37,2013-02-16 11:57:00,
2013-02-16 07:02:00,31.7,29.4,29.91,WNW,303,0.0,0.0,91,0.00,CLR,CLR,0.02,0.0,WeatherDisplay:10.37,2013-02-16 12:02:00,
2013-02-16 07:07:00,31.7,29.4,29.91,WNW,303,0.0,0.0,91,0.00,CLR,CLR,0.02,0.0,WeatherDisplay:10.37,2013-02-16 12:07:00,
2013-02-16 07:12:00,31.7,29.4,29.91,WNW,303,0.0,0.0,91,0.00,CLR,CLR,0.02,0.0,WeatherDisplay:10.37,2013-02-16 12:12:00,
2013-02-16 07:17:00,31.7,29.4,29.92,WNW,303,0.0,0.0,91,0.00,CLR,CLR,0.02,0.0,WeatherDisplay:10.37,2013-02-16 12:17:00,
2013-02-16 07:22:00,31.7,29.4,29.92,WNW,303,0.0,0.0,91,0.00,CLR,CLR,0.02,0.0,WeatherDisplay:10.37,2013-02-16 12:22:00,
2013-02-16 07:27:00,31.6,29.3,29.92,WNW,303,0.0,0.0,91,0.00,CLR,CLR,0.02,0.0,WeatherDisplay:10.37,2013-02-16 12:27:00,
2013-02-16 07:32:00,31.7,29.4,29.92,NW,305,0.0,0.0,91,0.00,CLR,CLR,0.02,0.0,WeatherDisplay:10.37,2013-02-16 12:32:00,
2013-02-16 07:37:00,31.7,29.4,29.92,NW,317,0.0,0.0,91,0.00,CLR,CLR,0.02,0.0,WeatherDisplay:10.37,2013-02-16 12:37:00,
2013-02-16 07:42:00,31.7,29.4,29.92,NW,324,0.0,0.0,91,0.00,CLR,CLR,0.02,0.0,WeatherDisplay:10.37,2013-02-16 12:42:00,
2013-02-16 07:47:00,31.7,29.6,29.92,NW,324,0.0,0.0,92,0.00,CLR,CLR,0.02,0.0,WeatherDisplay:10.37,2013-02-16 12:47:00,
2013-02-16 07:52:00,31.7,29.6,29.92,NW,324,0.0,0.0,92,0.00,CLR,CLR,0.02,0.0,WeatherDisplay:10.37,2013-02-16 12:52:00,
2013-02-16 07:57:00,31.7,29.4,29.92,NW,324,0.0,0.0,91,0.00,CLR,CLR,0.02,0.0,WeatherDisplay:10.37,2013-02-16 12:57:00,
2013-02-16 08:02:00,31.9,29.8,29.92,NW,324,0.0,0.0,92,0.00,CLR,CLR,0.02,0.0,WeatherDisplay:10.37,2013-02-16 13:02:00,
2013-02-16 08:07:00,31.9,29.8,29.92,NW,324,0.0,0.0,92,0.00,CLR,CLR,0.02,0.0,WeatherDisplay:10.37,2013-02-16 13:07:00,
2013-02-16 08:12:00,32.0,30.0,29.92,NW,324,0.0,0.0,92,0.00,CLR,CLR,0.02,14.0,WeatherDisplay:10.37,2013-02-16 13:12:00,
2013-02-16 08:17:00,32.1,30.0,29.92,NW,324,0.0,0.0,92,0.00,CLR,CLR,0.02,0.0,WeatherDisplay:10.37,2013-02-16 13:17:00,
2013-02-16 08:22:00,32.2,30.2,29.93,NW,324,0.0,0.0,92,0.00,CLR,CLR,0.02,0.0,WeatherDisplay:10.37,2013-02-16 13:22:00,
2013-02-16 08:27:00,32.4,30.3,29.93,NW,324,0.0,0.0,92,0.00,CLR,CLR,0.02,0.0,WeatherDisplay:10.37,2013-02-16 13:27:00,
2013-02-16 08:32:00,32.5,30.4,29.93,NW,324,0.0,0.0,92,0.00,CLR,CLR,0.02,0.0,WeatherDisplay:10.37,2013-02-16 13:32:00,
2013-02-16 08:37:00,32.6,30.5,29.93,NW,324,0.0,0.0,92,0.00,CLR,CLR,0.02,0.0,WeatherDisplay:10.37,2013-02-16 13:37:00,
2013-02-16 08:42:00,32.7,30.6,29.93,NW,324,0.0,0.0,92,0.00,CLR,CLR,0.02,0.0,WeatherDisplay:10.37,2013-02-16 13:42:00,
2013-02-16 08:47:00,32.8,30.7,29.92,NW,324,0.0,0.0,92,0.00,CLR,CLR,0.02,0.0,WeatherDisplay:10.37,2013-02-16 13:47:00,
2013-02-16 08:52:00,32.8,30.5,29.92,NW,309,0.0,3.0,91,0.00,CLR,CLR,0.02,0.0,WeatherDisplay:10.37,2013-02-16 13:52:00,
2013-02-16 08:57:00,33.0,30.6,29.92,NW,309,0.0,1.0,91,0.00,CLR,CLR,0.02,0.0,WeatherDisplay:10.37,2013-02-16 13:57:00,
2013-02-16 09:02:00,33.1,31.0,29.92,NW,326,0.0,0.0,92,0.00,CLR,CLR,0.02,0.0,WeatherDisplay:10.37,2013-02-16 14:02:00,
2013-02-16 09:07:00,33.3,31.0,29.92,NW,326,0.0,0.0,91,0.00,CLR,CLR,0.02,0.0,WeatherDisplay:10.37,2013-02-16 14:07:00,
2013-02-16 09:12:00,33.4,31.1,29.92,NW,326,0.0,0.0,91,0.00,CLR,CLR,0.02,0.0,WeatherDisplay:10.37,2013-02-16 14:12:00,
2013-02-16 09:17:00,33.5,31.2,29.92,NW,321,0.0,2.0,91,0.00,CLR,CLR,0.02,137.0,WeatherDisplay:10.37,2013-02-16 14:17:00,
2013-02-16 09:22:00,33.7,31.4,29.92,NW,318,0.0,2.0,91,0.00,CLR,CLR,0.02,0.0,WeatherDisplay:10.37,2013-02-16 14:22:00,
2013-02-16 09:27:00,33.7,31.1,29.91,NW,306,0.0,3.0,90,0.00,CLR,CLR,0.02,0.0,WeatherDisplay:10.37,2013-02-16 14:27:00,
2013-02-16 09:37:00,34.0,31.4,29.91,WNW,297,0.0,5.0,90,0.00,CLR,CLR,0.02,0.0,WeatherDisplay:10.37,2013-02-16 14:37:00,
2013-02-16 09:42:00,34.3,31.4,29.90,WNW,288,0.0,2.0,89,0.00,CLR,CLR,0.02,0.0,WeatherDisplay:10.37,2013-02-16 14:42:00,
2013-02-16 09:47:00,34.4,31.5,29.90,West,278,1.0,4.0,89,0.00,CLR,CLR,0.02,0.0,WeatherDisplay:10.37,2013-02-16 14:47:00,
2013-02-16 09:52:00,34.4,31.5,29.90,West,273,0.0,0.0,89,0.00,CLR,CLR,0.02,0.0,WeatherDisplay:10.37,2013-02-16 14:52:00,
2013-02-16 09:57:00,34.5,31.3,29.91,WNW,291,1.0,3.0,88,0.00,CLR,CLR,0.02,0.0,WeatherDisplay:10.37,2013-02-16 14:57:00,
2013-02-16 10:02:00,34.8,31.3,29.91,NW,318,0.0,2.0,87,0.00,CLR,CLR,0.02,0.0,WeatherDisplay:10.37,2013-02-16 15:02:00,
2013-02-16 10:07:00,34.8,31.3,29.90,NW,308,0.0,3.0,87,0.00,CLR,CLR,0.02,0.0,WeatherDisplay:10.37,2013-02-16 15:07:00,
2013-02-16 10:12:00,35.2,31.7,29.90,WNW,293,0.0,2.0,87,0.00,CLR,CLR,0.02,0.0,WeatherDisplay:10.37,2013-02-16 15:12:00,
2013-02-16 10:17:00,35.2,31.2,29.90,NW,317,0.0,2.0,85,0.00,CLR,CLR,0.02,0.0,WeatherDisplay:10.37,2013-02-16 15:17:00,
2013-02-16 10:22:00,35.1,30.8,29.90,NW,314,1.0,4.0,84,0.00,CLR,CLR,0.02,0.0,WeatherDisplay:10.37,2013-02-16 15:22:00,
2013-02-16 10:27:00,35.1,30.7,29.90,WNW,300,0.0,0.0,84,0.00,CLR,CLR,0.02,0.0,WeatherDisplay:10.37,2013-02-16 15:27:00,
2013-02-16 10:32:00,35.2,30.8,29.90,NW,304,0.0,3.0,84,0.00,CLR,CLR,0.02,0.0,WeatherDisplay:10.37,2013-02-16 15:32:00,
2013-02-16 10:37:00,35.2,30.6,29.91,NW,309,0.0,4.0,83,0.00,CLR,CLR,0.02,0.0,WeatherDisplay:10.37,2013-02-16 15:37:00,
2013-02-16 10:42:00,35.3,30.7,29.91,WNW,297,0.0,3.0,83,0.00,CLR,CLR,0.02,0.0,WeatherDisplay:10.37,2013-02-16 15:42:00,
2013-02-16 10:47:00,35.5,30.8,29.90,NW,307,0.0,1.0,83,0.00,CLR,CLR,0.02,0.0,WeatherDisplay:10.37,2013-02-16 15:47:00,
2013-02-16 10:52:00,35.7,31.0,29.90,WNW,302,0.0,3.0,83,0.00,CLR,CLR,0.02,209.0,WeatherDisplay:10.37,2013-02-16 15:52:00,
2013-02-16 10:57:00,35.7,30.7,29.90,WNW,290,0.0,0.0,82,0.00,CLR,CLR,0.02,0.0,WeatherDisplay:10.37,2013-02-16 15:57:00,
2013-02-16 11:02:00,35.9,31.2,29.90,NW,318,0.0,1.0,83,0.00,CLR,CLR,0.02,0.0,WeatherDisplay:10.37,2013-02-16 16:02:00,
2013-02-16 11:07:00,35.9,30.6,29.90,NW,325,0.0,3.0,81,0.00,CLR,CLR,0.02,0.0,WeatherDisplay:10.37,2013-02-16 16:07:00,
2013-02-16 11:12:00,36.0,30.7,29.90,NW,323,0.0,1.0,81,0.00,CLR,CLR,0.02,0.0,WeatherDisplay:10.37,2013-02-16 16:12:00,
2013-02-16 11:17:00,36.0,30.5,29.90,NW,317,1.0,6.0,80,0.00,CLR,CLR,0.02,0.0,WeatherDisplay:10.37,2013-02-16 16:17:00,
2013-02-16 11:22:00,36.0,30.4,29.90,WNW,302,0.0,3.0,80,0.00,CLR,CLR,0.02,0.0,WeatherDisplay:10.37,2013-02-16 16:22:00,
2013-02-16 11:27:00,36.1,30.2,29.89,NW,315,1.0,5.0,79,0.00,CLR,CLR,0.02,0.0,WeatherDisplay:10.37,2013-02-16 16:27:00,
2013-02-16 11:32:00,36.2,30.6,29.89,NW,322,0.0,1.0,80,0.00,CLR,CLR,0.02,188.0,WeatherDisplay:10.37,2013-02-16 16:32:00,
2013-02-16 11:37:00,36.1,30.2,29.89,NNW,329,0.0,0.0,79,0.00,CLR,CLR,0.02,0.0,WeatherDisplay:10.37,2013-02-16 16:37:00,
2013-02-16 11:47:00,36.4,30.5,29.88,NNW,329,0.0,0.0,79,0.00,CLR,CLR,0.02,0.0,WeatherDisplay:10.37,2013-02-16 16:47:00,
2013-02-16 11:52:00,36.5,30.6,29.88,NW,322,0.0,2.0,79,0.00,CLR,CLR,0.02,0.0,WeatherDisplay:10.37,2013-02-16 16:52:00,
2013-02-16 11:57:00,36.5,30.3,29.87,NW,320,0.0,0.0,78,0.00,CLR,CLR,0.02,0.0,WeatherDisplay:10.37,2013-02-16 16:57:00,
2013-02-16 12:02:00,36.8,30.9,29.87,NNW,333,0.0,2.0,79,0.00,CLR,CLR,0.02,0.0,WeatherDisplay:10.37,2013-02-16 17:02:00,
2013-02-16 12:07:00,37.2,31.0,29.87,North,3,2.0,3.0,78,0.00,CLR,CLR,0.02,0.0,WeatherDisplay:10.37,2013-02-16 17:07:00,
2013-02-16 12:12:00,37.6,31.4,29.87,NE,45,0.0,3.0,78,0.00,CLR,CLR,0.02,0.0,WeatherDisplay:10.37,2013-02-16 17:12:00,
2013-02-16 12:17:00,37.6,30.7,29.87,ENE,66,0.0,1.0,76,0.00,CLR,CLR,0.02,0.0,WeatherDisplay:10.37,2013-02-16 17:17:00,
2013-02-16 12:22:00,37.7,30.5,29.87,ENE,70,0.0,0.0,75,0.00,CLR,CLR,0.02,0.0,WeatherDisplay:10.37,2013-02-16 17:22:00,
2013-02-16 12:27:00,37.7,30.5,29.87,ENE,63,0.0,3.0,75,0.00,CLR,CLR,0.02,0.0,WeatherDisplay:10.37,2013-02-16 17:27:00,
2013-02-16 12:32:00,37.5,30.3,29.87,NNW,337,0.0,2.0,75,0.00,CLR,CLR,0.02,0.0,WeatherDisplay:10.37,2013-02-16 17:32:00,
2013-02-16 12:37:00,37.5,30.3,29.86,NNE,25,0.0,0.0,75,0.00,CLR,CLR,0.02,0.0,WeatherDisplay:10.37,2013-02-16 17:37:00,
2013-02-16 12:42:00,37.6,30.4,29.86,ENE,58,0.0,0.0,75,0.00,CLR,CLR,0.02,0.0,WeatherDisplay:10.37,2013-02-16 17:42:00,
2013-02-16 12:47:00,37.8,30.6,29.86,NNE,28,1.0,5.0,75,0.00,CLR,CLR,0.02,0.0,WeatherDisplay:10.37,2013-02-16 17:47:00,
2013-02-16 12:52:00,37.8,30.3,29.86,NNW,346,0.0,0.0,74,0.00,CLR,CLR,0.02,0.0,WeatherDisplay:10.37,2013-02-16 17:52:00,
2013-02-16 12:57:00,37.8,29.9,29.86,North,354,0.0,2.0,73,0.00,CLR,CLR,0.02,0.0,WeatherDisplay:10.37,2013-02-16 17:57:00,
2013-02-16 13:02:00,37.8,30.3,29.85,NE,40,0.0,2.0,74,0.00,CLR,CLR,0.02,0.0,WeatherDisplay:10.37,2013-02-16 18:02:00,
2013-02-16 13:07:00,37.9,30.4,29.85,NE,56,0.0,0.0,74,0.00,CLR,CLR,0.02,0.0,WeatherDisplay:10.37,2013-02-16 18:07:00,
2013-02-16 13:12:00,37.9,30.0,29.85,North,7,0.0,4.0,73,0.00,CLR,CLR,0.02,0.0,WeatherDisplay:10.37,2013-02-16 18:12:00,
2013-02-16 13:17:00,37.9,30.0,29.85,NW,326,0.0,0.0,73,0.00,CLR,CLR,0.02,0.0,WeatherDisplay:10.37,2013-02-16 18:17:00,
2013-02-16 13:22:00,37.9,29.7,29.85,NW,326,0.0,0.0,72,0.00,CLR,CLR,0.02,0.0,WeatherDisplay:10.37,2013-02-16 18:22:00,
2013-02-16 13:27:00,37.9,29.7,29.85,NNW,328,0.0,0.0,72,0.00,CLR,CLR,0.02,0.0,WeatherDisplay:10.37,2013-02-16 18:27:00,
2013-02-16 13:32:00,38.0,30.1,29.85,NNW,330,0.0,0.0,73,0.00,CLR,CLR,0.02,0.0,WeatherDisplay:10.37,2013-02-16 18:32:00,
2013-02-16 13:37:00,38.2,30.3,29.84,NNW,332,0.0,1.0,73,0.00,CLR,CLR,0.02,0.0,WeatherDisplay:10.37,2013-02-16 18:37:00,
2013-02-16 13:47:00,38.0,29.4,29.84,WNW,303,1.0,2.0,71,0.00,CLR,CLR,0.02,0.0,WeatherDisplay:10.37,2013-02-16 18:47:00,
2013-02-16 13:52:00,37.9,29.7,29.84,NW,304,0.0,0.0,72,0.00,CLR,CLR,0.02,0.0,WeatherDisplay:10.37,2013-02-16 18:52:00,
2013-02-16 13:57:00,38.1,29.9,29.84,NNW,332,0.0,0.0,72,0.00,CLR,CLR,0.02,0.0,WeatherDisplay:10.37,2013-02-16 18:57:00,
2013-02-16 14:02:00,38.3,29.7,29.84,North,358,0.0,0.0,71,0.00,CLR,CLR,0.02,0.0,WeatherDisplay:10.37,2013-02-16 19:02:00,
2013-02-16 14:07:00,38.3,29.4,29.84,North,9,0.0,0.0,70,0.00,CLR,CLR,0.02,188.0,WeatherDisplay:10.37,2013-02-16 19:07:00,
2013-02-16 14:12:00,38.4,29.8,29.84,NNE,13,0.0,2.0,71,0.00,CLR,CLR,0.02,0.0,WeatherDisplay:10.37,2013-02-16 19:12:00,
2013-02-16 14:17:00,38.5,29.6,29.83,NNE,13,0.0,0.0,70,0.00,CLR,CLR,0.02,0.0,WeatherDisplay:10.37,2013-02-16 19:17:00,
2013-02-16 14:22:00,38.6,29.7,29.83,NNE,17,1.0,4.0,70,0.00,CLR,CLR,0.02,172.0,WeatherDisplay:10.37,2013-02-16 19:22:00,
2013-02-16 14:27:00,38.6,29.7,29.83,NNE,28,0.0,3.0,70,0.00,CLR,CLR,0.02,0.0,WeatherDisplay:10.37,2013-02-16 19:27:00,
2013-02-16 14:32:00,38.6,29.7,29.83,NE,34,0.0,0.0,70,0.00,CLR,CLR,0.02,128.0,WeatherDisplay:10.37,2013-02-16 19:32:00,
2013-02-16 14:37:00,38.6,29.7,29.83,NE,34,0.0,0.0,70,0.00,CLR,CLR,0.02,0.0,WeatherDisplay:10.37,2013-02-16 19:37:00,
2013-02-16 14:42:00,38.5,29.2,29.83,NE,35,0.0,4.0,69,0.00,CLR,CLR,0.02,116.0,WeatherDisplay:10.37,2013-02-16 19:42:00,
2013-02-16 14:47:00,38.4,28.8,29.83,NNE,20,0.0,3.0,68,0.00,CLR,CLR,0.02,0.0,WeatherDisplay:10.37,2013-02-16 19:47:00,
2013-02-16 14:52:00,38.4,29.1,29.83,North,357,0.0,0.0,69,0.00,CLR,CLR,0.02,132.0,WeatherDisplay:10.37,2013-02-16 19:52:00,
2013-02-16 14:57:00,38.2,28.9,29.83,North,353,0.0,0.0,69,0.00,CLR,CLR,0.02,134.0,WeatherDisplay:10.37,2013-02-16 19:57:00,
2013-02-16 15:02:00,38.3,29.4,29.83,North,353,0.0,0.0,70,0.00,CLR,CLR,0.02,137.0,WeatherDisplay:10.37,2013-02-16 20:02:00,
2013-02-16 15:07:00,38.4,29.5,29.82,North,353,0.0,0.0,70,0.00,CLR,CLR,0.02,134.0,WeatherDisplay:10.37,2013-02-16 20:07:00,
2013-02-16 15:12:00,38.3,28.7,29.83,NNW,333,1.0,3.0,68,0.00,CLR,CLR,0.02,128.0,WeatherDisplay:10.37,2013-02-16 20:12:00,
2013-02-16 15:17:00,38.3,29.0,29.82,NW,319,0.0,1.0,69,0.00,CLR,CLR,0.02,0.0,WeatherDisplay:10.37,2013-02-16 20:17:00,
2013-02-16 15:22:00,38.3,29.0,29.82,NNW,330,0.0,1.0,69,0.00,CLR,CLR,0.02,0.0,WeatherDisplay:10.37,2013-02-16 20:22:00,
2013-02-16 15:27:00,38.3,29.0,29.82,NNW,330,0.0,0.0,69,0.00,CLR,CLR,0.02,139.0,WeatherDisplay:10.37,2013-02-16 20:27:00,
2013-02-16 15:32:00,38.3,28.7,29.82,NNW,331,0.0,3.0,68,0.00,CLR,CLR,0.02,0.0,WeatherDisplay:10.37,2013-02-16 20:32:00,
2013-02-16 15:37:00,38.3,28.7,29.82,NNW,327,0.0,0.0,68,0.00,CLR,CLR,0.02,0.0,WeatherDisplay:10.37,2013-02-16 20:37:00,
2013-02-16 15:42:00,38.3,28.7,29.82,NW,312,0.0,0.0,68,0.00,CLR,CLR,0.02,132.0,WeatherDisplay:10.37,2013-02-16 20:42:00,
2013-02-16 15:47:00,38.3,28.3,29.82,WNW,302,0.0,0.0,67,0.00,CLR,CLR,0.02,116.0,WeatherDisplay:10.37,2013-02-16 20:47:00,
2013-02-16 15:52:00,38.4,28.8,29.81,WNW,302,1.0,3.0,68,0.00,CLR,CLR,0.02,0.0,WeatherDisplay:10.37,2013-02-16 20:52:00,
2013-02-16 15:57:00,38.4,28.8,29.81,WNW,302,0.0,0.0,68,0.00,CLR,CLR,0.02,84.0,WeatherDisplay:10.37,2013-02-16 20:57:00,
2013-02-16 16:02:00,38.5,28.9,29.81,WNW,303,0.0,1.0,68,0.00,CLR,CLR,0.02,0.0,WeatherDisplay:10.37,2013-02-16 21:02:00,
2013-02-16 16:07:00,38.5,28.9,29.81,WNW,303,0.0,0.0,68,0.00,CLR,CLR,0.02,0.0,WeatherDisplay:10.37,2013-02-16 21:07:00,
2013-02-16 16:12:00,38.4,28.4,29.81,WNW,303,0.0,1.0,67,0.00,CLR,CLR,0.02,0.0,WeatherDisplay:10.37,2013-02-16 21:12:00,
2013-02-16 16:17:00,38.3,27.9,29.81,WNW,303,0.0,0.0,66,0.00,CLR,CLR,0.02,0.0,WeatherDisplay:10.37,2013-02-16 21:17:00,
2013-02-16 16:22:00,38.2,27.9,29.80,WNW,303,0.0,0.0,66,0.00,CLR,CLR,0.02,49.0,WeatherDisplay:10.37,2013-02-16 21:22:00,
2013-02-16 16:27:00,38.2,28.6,29.80,NW,312,0.0,1.0,68,0.00,CLR,CLR,0.02,0.0,WeatherDisplay:10.37,2013-02-16 21:27:00,
2013-02-16 16:37:00,38.0,28.0,29.80,North,355,0.0,2.0,67,0.00,CLR,CLR,0.02,0.0,WeatherDisplay:10.37,2013-02-16 21:37:00,
2013-02-16 16:42:00,37.9,27.5,29.80,North,356,0.0,0.0,66,0.00,CLR,CLR,0.02,37.0,WeatherDisplay:10.37,2013-02-16 21:42:00,
2013-02-16 16:47:00,37.8,27.8,29.79,North,356,0.0,2.0,67,0.00,CLR,CLR,0.02,23.0,WeatherDisplay:10.37,2013-02-16 21:47:00,
2013-02-16 16:52:00,37.8,27.8,29.79,North,356,0.0,0.0,67,0.00,CLR,CLR,0.02,0.0,WeatherDisplay:10.37,2013-02-16 21:52:00,
2013-02-16 16:57:00,37.7,27.7,29.79,North,356,0.0,3.0,67,0.00,CLR,CLR,0.02,21.0,WeatherDisplay:10.37,2013-02-16 21:57:00,
2013-02-16 17:02:00,37.5,26.8,29.80,NNW,342,0.0,4.0,65,0.00,CLR,CLR,0.02,0.0,WeatherDisplay:10.37,2013-02-16 22:02:00,
2013-02-16 17:07:00,37.4,25.9,29.80,NW,322,2.0,4.0,63,0.00,CLR,CLR,0.02,0.0,WeatherDisplay:10.37,2013-02-16 22:07:00,
2013-02-16 17:12:00,37.2,25.8,29.80,NW,308,1.0,5.0,63,0.00,CLR,CLR,0.02,0.0,WeatherDisplay:10.37,2013-02-16 22:12:00,
2013-02-16 17:17:00,37.0,25.6,29.80,WNW,286,0.0,2.0,63,0.00,CLR,CLR,0.02,0.0,WeatherDisplay:10.37,2013-02-16 22:17:00,
2013-02-16 17:22:00,36.9,25.9,29.81,WNW,284,0.0,0.0,64,0.00,CLR,CLR,0.02,0.0,WeatherDisplay:10.37,2013-02-16 22:22:00,
2013-02-16 17:27:00,36.8,25.4,29.81,WNW,297,1.0,4.0,63,0.00,CLR,CLR,0.02,0.0,WeatherDisplay:10.37,2013-02-16 22:27:00,
2013-02-16 17:32:00,36.6,24.8,29.81,WNW,300,0.0,4.0,62,0.00,CLR,CLR,0.02,0.0,WeatherDisplay:10.37,2013-02-16 22:32:00,
2013-02-16 17:37:00,36.5,24.7,29.81,NW,323,0.0,7.0,62,0.00,CLR,CLR,0.02,0.0,WeatherDisplay:10.37,2013-02-16 22:37:00,
2013-02-16 17:42:00,36.4,25.0,29.81,NNW,348,0.0,4.0,63,0.00,CLR,CLR,0.02,0.0,WeatherDisplay:10.37,2013-02-16 22:42:00,
2013-02-16 17:47:00,36.3,24.9,29.81,North,351,0.0,2.0,63,0.00,CLR,CLR,0.02,0.0,WeatherDisplay:10.37,2013-02-16 22:47:00,
2013-02-16 17:52:00,36.2,25.2,29.81,NNW,341,0.0,0.0,64,0.00,CLR,CLR,0.02,0.0,WeatherDisplay:10.37,2013-02-16 22:52:00,
2013-02-16 17:57:00,36.0,24.7,29.81,NNW,337,0.0,1.0,63,0.00,CLR,CLR,0.02,0.0,WeatherDisplay:10.37,2013-02-16 22:57:00,
2013-02-16 18:02:00,35.9,24.5,29.81,NW,324,1.0,4.0,63,0.00,CLR,CLR,0.02,0.0,WeatherDisplay:10.37,2013-02-16 23:02:00,
2013-02-16 18:07:00,35.8,24.4,29.81,NW,314,0.0,0.0,63,0.00,CLR,CLR,0.02,0.0,WeatherDisplay:10.37,2013-02-16 23:07:00,
2013-02-16 18:12:00,35.7,25.1,29.81,West,267,0.0,2.0,65,0.00,CLR,CLR,0.02,0.0,WeatherDisplay:10.37,2013-02-16 23:12:00,
2013-02-16 18:17:00,35.5,24.1,29.81,WSW,241,0.0,1.0,63,0.00,CLR,CLR,0.02,0.0,WeatherDisplay:10.37,2013-02-16 23:17:00,
2013-02-16 18:22:00,35.4,24.4,29.81,West,260,0.0,3.0,64,0.00,CLR,CLR,0.02,0.0,WeatherDisplay:10.37,2013-02-16 23:22:00,
2013-02-16 18:27:00,35.3,24.3,29.81,West,277,1.0,5.0,64,0.00,CLR,CLR,0.02,0.0,WeatherDisplay:10.37,2013-02-16 23:27:00,
2013-02-16 18:32:00,35.1,23.8,29.81,NW,313,0.0,4.0,63,0.00,CLR,CLR,0.02,0.0,WeatherDisplay:10.37,2013-02-16 23:32:00,
2013-02-16 18:37:00,35.0,23.7,29.81,NNW,331,0.0,0.0,63,0.00,CLR,CLR,0.02,0.0,WeatherDisplay:10.37,2013-02-16 23:37:00,
2013-02-16 18:42:00,34.9,23.6,29.81,NNW,336,0.0,4.0,63,0.00,CLR,CLR,0.02,0.0,WeatherDisplay:10.37,2013-02-16 23:42:00,
2013-02-16 18:47:00,34.8,23.1,29.81,NNW,345,0.0,0.0,62,0.00,CLR,CLR,0.02,0.0,WeatherDisplay:10.37,2013-02-16 23:47:00,
2013-02-16 18:52:00,34.6,22.5,29.81,NW,318,1.0,6.0,61,0.00,CLR,CLR,0.02,0.0,WeatherDisplay:10.37,2013-02-16 23:52:00,
2013-02-16 18:57:00,34.4,22.7,29.81,NW,315,1.0,6.0,62,0.00,CLR,CLR,0.02,0.0,WeatherDisplay:10.37,2013-02-16 23:57:00,
2013-02-16 19:02:00,34.4,22.7,29.81,NNW,341,0.0,3.0,62,0.00,CLR,CLR,0.02,0.0,WeatherDisplay:10.37,2013-02-17 00:02:00,
2013-02-16 19:07:00,34.4,22.3,29.81,NNW,334,0.0,2.0,61,0.00,CLR,CLR,0.02,0.0,WeatherDisplay:10.37,2013-02-17 00:07:00,
2013-02-16 19:12:00,34.4,22.7,29.80,NW,326,1.0,3.0,62,0.00,CLR,CLR,0.02,0.0,WeatherDisplay:10.37,2013-02-17 00:12:00,
2013-02-16 19:17:00,34.3,22.6,29.81,NNW,336,0.0,1.0,62,0.00,CLR,CLR,0.02,0.0,WeatherDisplay:10.37,2013-02-17 00:17:00,
2013-02-16 19:22:00,34.2,22.1,29.81,NNW,335,0.0,2.0,61,0.00,CLR,CLR,0.02,0.0,WeatherDisplay:10.37,2013-02-17 00:22:00,
2013-02-16 19:27:00,34.1,22.0,29.80,NNW,331,0.0,2.0,61,0.00,CLR,CLR,0.02,0.0,WeatherDisplay:10.37,2013-02-17 00:27:00,
2013-02-16 19:32:00,33.9,21.5,29.80,NW,319,2.0,5.0,60,0.00,CLR,CLR,0.02,0.0,WeatherDisplay:10.37,2013-02-17 00:32:00,
2013-02-16 19:37:00,33.8,21.4,29.80,NW,314,0.0,3.0,60,0.00,CLR,CLR,0.02,0.0,WeatherDisplay:10.37,2013-02-17 00:37:00,
2013-02-16 19:42:00,33.6,21.6,29.80,NW,325,0.0,3.0,61,0.00,CLR,CLR,0.02,0.0,WeatherDisplay:10.37,2013-02-17 00:42:00,
2013-02-16 19:47:00,33.5,21.1,29.80,NNW,343,1.0,4.0,60,0.00,CLR,CLR,0.02,0.0,WeatherDisplay:10.37,2013-02-17 00:47:00,
2013-02-16 19:52:00,33.4,21.0,29.79,NW,324,0.0,3.0,60,0.00,CLR,CLR,0.02,0.0,WeatherDisplay:10.37,2013-02-17 00:52:00,
2013-02-16 19:57:00,33.3,21.3,29.79,NW,305,0.0,5.0,61,0.00,CLR,CLR,0.02,0.0,WeatherDisplay:10.37,2013-02-17 00:57:00,
2013-02-16 20:02:00,33.2,20.4,29.79,NW,310,2.0,5.0,59,0.00,CLR,CLR,0.02,0.0,WeatherDisplay:10.37,2013-02-17 01:02:00,
2013-02-16 20:07:00,33.0,20.6,29.79,NW,309,0.0,2.0,60,0.00,CLR,CLR,0.02,0.0,WeatherDisplay:10.37,2013-02-17 01:07:00,
2013-02-16 20:12:00,33.0,20.6,29.79,NW,308,0.0,0.0,60,0.00,CLR,CLR,0.02,0.0,WeatherDisplay:10.37,2013-02-17 01:12:00,
2013-02-16 20:17:00,32.9,21.3,29.79,NW,312,0.0,1.0,62,0.00,CLR,CLR,0.02,0.0,WeatherDisplay:10.37,2013-02-17 01:17:00,
2013-02-16 20:22:00,32.8,20.0,29.78,NW,307,1.0,3.0,59,0.00,CLR,CLR,0.02,0.0,WeatherDisplay:10.37,2013-02-17 01:22:00,
2013-02-16 20:27:00,32.7,20.3,29.78,WNW,302,0.0,6.0,60,0.00,CLR,CLR,0.02,0.0,WeatherDisplay:10.37,2013-02-17 01:27:00,
2013-02-16 20:37:00,32.5,20.1,29.78,WNW,292,2.0,6.0,60,0.00,CLR,CLR,0.02,0.0,WeatherDisplay:10.37,2013-02-17 01:37:00,
2013-02-16 20:42:00,32.4,20.0,29.78,WNW,294,1.0,5.0,60,0.00,CLR,CLR,0.02,0.0,WeatherDisplay:10.37,2013-02-17 01:42:00,
2013-02-16 20:52:00,32.2,19.5,29.78,NW,305,1.0,7.0,59,0.00,CLR,CLR,0.02,0.0,WeatherDisplay:10.37,2013-02-17 01:52:00,
2013-02-16 20:57:00,32.1,20.2,29.78,NW,320,0.0,0.0,61,0.00,CLR,CLR,0.02,0.0,WeatherDisplay:10.37,2013-02-17 01:57:00,
2013-02-16 21:02:00,32.1,20.1,29.78,NW,313,1.0,6.0,61,0.00,OVC,OVC,0.02,0.0,WeatherDisplay:10.37,2013-02-17 02:02:00,
2013-02-16 21:07:00,31.9,19.2,29.78,WNW,298,1.0,9.0,59,0.00,OVC,OVC,0.02,0.0,WeatherDisplay:10.37,2013-02-17 02:07:00,
2013-02-16 21:12:00,31.9,18.8,29.78,NW,310,1.0,4.0,58,0.00,OVC,OVC,0.02,0.0,WeatherDisplay:10.37,2013-02-17 02:12:00,
2013-02-16 21:17:00,31.8,19.1,29.78,NW,315,0.0,3.0,59,0.00,OVC,OVC,0.02,0.0,WeatherDisplay:10.37,2013-02-17 02:17:00,
2013-02-16 21:22:00,31.7,19.0,29.77,WNW,298,2.0,5.0,59,0.00,OVC,OVC,0.02,0.0,WeatherDisplay:10.37,2013-02-17 02:22:00,
2013-02-16 21:27:00,31.6,18.5,29.78,West,278,0.0,4.0,58,0.00,OVC,OVC,0.02,0.0,WeatherDisplay:10.37,2013-02-17 02:27:00,
2013-02-16 21:32:00,31.5,18.8,29.78,WNW,292,0.0,4.0,59,0.00,OVC,OVC,0.02,0.0,WeatherDisplay:10.37,2013-02-17 02:32:00,
2013-02-16 21:37:00,31.5,18.8,29.77,NW,324,0.0,1.0,59,0.00,OVC,OVC,0.02,0.0,WeatherDisplay:10.37,2013-02-17 02:37:00,
2013-02-16 21:42:00,31.4,18.7,29.78,NW,318,0.0,2.0,59,0.00,OVC,OVC,0.02,0.0,WeatherDisplay:10.37,2013-02-17 02:42:00,
2013-02-16 21:47:00,31.3,18.6,29.78,NW,310,1.0,9.0,59,0.00,OVC,OVC,0.02,0.0,WeatherDisplay:10.37,2013-02-17 02:47:00,
2013-02-16 21:52:00,31.2,18.6,29.77,NW,322,2.0,6.0,59,0.00,OVC,OVC,0.02,0.0,WeatherDisplay:10.37,2013-02-17 02:52:00,
2013-02-16 21:57:00,31.2,18.9,29.77,NNW,337,0.0,3.0,60,0.00,OVC,OVC,0.02,0.0,WeatherDisplay:10.37,2013-02-17 02:57:00,
2013-02-16 22:02:00,31.1,18.4,29.77,NNW,328,1.0,3.0,59,0.00,OVC,OVC,0.02,0.0,WeatherDisplay:10.37,2013-02-17 03:02:00,
2013-02-16 22:07:00,31.1,18.8,29.77,WNW,291,2.0,9.0,60,0.00,OVC,OVC,0.02,0.0,WeatherDisplay:10.37,2013-02-17 03:07:00,
2013-02-16 22:12:00,31.0,18.7,29.76,WNW,286,1.0,2.0,60,0.00,OVC,OVC,0.02,0.0,WeatherDisplay:10.37,2013-02-17 03:12:00,
2013-02-16 22:17:00,30.9,18.6,29.76,NNW,333,0.0,4.0,60,0.00,OVC,OVC,0.02,0.0,WeatherDisplay:10.37,2013-02-17 03:17:00,
2013-02-16 22:22:00,30.8,18.5,29.76,NW,317,1.0,6.0,60,0.00,OVC,OVC,0.02,0.0,WeatherDisplay:10.37,2013-02-17 03:22:00,
2013-02-16 22:27:00,30.7,18.1,29.75,NNW,327,2.0,6.0,59,0.00,OVC,OVC,0.02,0.0,WeatherDisplay:10.37,2013-02-17 03:27:00,
2013-02-16 22:32:00,30.6,17.6,29.76,NW,310,1.0,9.0,58,0.00,OVC,OVC,0.02,0.0,WeatherDisplay:10.37,2013-02-17 03:32:00,
2013-02-16 22:37:00,30.5,18.3,29.75,NW,307,0.0,4.0,60,0.00,OVC,OVC,0.02,0.0,WeatherDisplay:10.37,2013-02-17 03:37:00,
2013-02-16 22:47:00,30.3,18.0,29.74,NW,316,1.0,12.0,60,0.00,OVC,OVC,0.02,0.0,WeatherDisplay:10.37,2013-02-17 03:47:00,
2013-02-16 22:57:00,29.9,18.5,29.74,NW,314,3.0,9.0,62,0.00,OVC,OVC,0.02,0.0,WeatherDisplay:10.37,2013-02-17 03:57:00,
2013-02-16 23:02:00,29.7,18.6,29.73,NW,317,2.0,6.0,63,0.00,OVC,OVC,0.00,0.0,WeatherDisplay:10.37,2013-02-17 04:02:00,
2013-02-16 23:07:00,29.6,18.5,29.73,NW,309,1.0,10.0,63,0.00,OVC,OVC,0.00,0.0,WeatherDisplay:10.37,2013-02-17 04:07:00,
2013-02-16 23:12:00,29.5,18.8,29.73,NW,316,0.0,5.0,64,0.00,OVC,OVC,0.00,0.0,WeatherDisplay:10.37,2013-02-17 04:12:00,
2013-02-16 23:17:00,29.3,19.0,29.72,NNW,337,0.0,4.0,65,0.00,OVC,OVC,0.00,0.0,WeatherDisplay:10.37,2013-02-17 04:17:00,
2013-02-16 23:22:00,29.2,19.2,29.72,NNW,335,0.0,10.0,66,0.00,OVC,OVC,0.00,0.0,WeatherDisplay:10.37,2013-02-17 04:22:00,
2013-02-16 23:27:00,29.1,19.1,29.72,NNW,333,0.0,9.0,66,0.00,OVC,OVC,0.00,0.0,WeatherDisplay:10.37,2013-02-17 04:27:00,
2013-02-16 23:32:00,29.0,19.4,29.72,NNW,327,1.0,7.0,67,0.00,OVC,OVC,0.00,0.0,WeatherDisplay:10.37,2013-02-17 04:32:00,
2013-02-16 23:37:00,28.8,19.6,29.72,WNW,293,0.0,4.0,68,0.00,OVC,OVC,0.00,0.0,WeatherDisplay:10.37,2013-02-17 04:37:00,
2013-02-16 23:42:00,28.8,19.6,29.72,West,272,0.0,6.0,68,0.00,OVC,OVC,0.00,0.0,WeatherDisplay:10.37,2013-02-17 04:42:00,
2013-02-16 23:47:00,28.6,19.7,29.72,West,273,1.0,6.0,69,0.00,OVC,OVC,0.00,0.0,WeatherDisplay:10.37,2013-02-17 04:47:00,
2013-02-16 23:52:00,28.4,19.9,29.72,WNW,300,0.0,8.0,70,0.00,OVC,OVC,0.00,0.0,WeatherDisplay:10.37,2013-02-17 04:52:00,
2013-02-16 23:57:00,28.2,19.7,29.72,NW,311,1.0,4.0,70,0.00,OVC,OVC,0.00,0.0,WeatherDisplay:10.37,2013-02-17 04:57:00,